sensor_id;sensor_type;location;lat;lon;timestamp;temperature;humidity
2851;DHT22;1433;49.976;8.342;2024-01-10T00:01:46;-3.90;1.00
2851;DHT22;1433;49.976;8.342;2024-01-10T00:04:12;-3.90;1.00
2851;DHT22;1433;49.976;8.342;2024-01-10T00:06:38;-3.90;1.00
2851;DHT22;1433;49.976;8.342;2024-01-10T00:09:04;-4.00;1.00
2851;DHT22;1433;49.976;8.342;2024-01-10T00:11:30;-3.90;1.00
2851;DHT22;1433;49.976;8.342;2024-01-10T00:13:57;-3.90;1.00
2851;DHT22;1433;49.976;8.342;2024-01-10T00:16:26;-4.00;1.00
2851;DHT22;1433;49.976;8.342;2024-01-10T00:18:53;-4.00;1.00
2851;DHT22;1433;49.976;8.342;2024-01-10T00:21:19;-4.10;1.00
2851;DHT22;1433;49.976;8.342;2024-01-10T00:23:45;-4.10;1.00
2851;DHT22;1433;49.976;8.342;2024-01-10T00:26:11;-4.10;1.00
2851;DHT22;1433;49.976;8.342;2024-01-10T00:28:37;-4.20;1.00
2851;DHT22;1433;49.976;8.342;2024-01-10T00:31:04;-4.20;1.00
2851;DHT22;1433;49.976;8.342;2024-01-10T00:33:30;-4.20;1.00
2851;DHT22;1433;49.976;8.342;2024-01-10T00:35:56;-4.20;1.00
2851;DHT22;1433;49.976;8.342;2024-01-10T00:38:22;-4.20;1.00
2851;DHT22;1433;49.976;8.342;2024-01-10T00:40:48;-4.20;1.00
2851;DHT22;1433;49.976;8.342;2024-01-10T00:43:14;-4.30;1.00
2851;DHT22;1433;49.976;8.342;2024-01-10T00:45:41;-4.30;1.00
2851;DHT22;1433;49.976;8.342;2024-01-10T00:48:07;-4.40;1.00
2851;DHT22;1433;49.976;8.342;2024-01-10T00:50:33;-4.50;1.00
2851;DHT22;1433;49.976;8.342;2024-01-10T00:52:59;-4.50;1.00
2851;DHT22;1433;49.976;8.342;2024-01-10T00:55:25;-4.60;1.00
2851;DHT22;1433;49.976;8.342;2024-01-10T00:57:51;-4.60;1.00
2851;DHT22;1433;49.976;8.342;2024-01-10T01:00:17;-4.70;1.00
2851;DHT22;1433;49.976;8.342;2024-01-10T01:02:44;-4.70;1.00
2851;DHT22;1433;49.976;8.342;2024-01-10T01:05:11;-4.70;1.00
2851;DHT22;1433;49.976;8.342;2024-01-10T01:07:37;-4.70;1.00
2851;DHT22;1433;49.976;8.342;2024-01-10T01:10:04;-4.70;1.00
2851;DHT22;1433;49.976;8.342;2024-01-10T01:12:30;-4.80;1.00
2851;DHT22;1433;49.976;8.342;2024-01-10T01:14:56;-4.70;1.00
2851;DHT22;1433;49.976;8.342;2024-01-10T01:17:22;-4.70;1.00
2851;DHT22;1433;49.976;8.342;2024-01-10T01:19:48;-4.60;1.00
2851;DHT22;1433;49.976;8.342;2024-01-10T01:22:14;-4.70;1.00
2851;DHT22;1433;49.976;8.342;2024-01-10T01:24:41;-4.60;1.00
2851;DHT22;1433;49.976;8.342;2024-01-10T01:27:07;-4.70;1.00
2851;DHT22;1433;49.976;8.342;2024-01-10T01:29:33;-4.70;1.00
2851;DHT22;1433;49.976;8.342;2024-01-10T01:31:59;-4.70;1.00
2851;DHT22;1433;49.976;8.342;2024-01-10T01:34:25;-4.70;1.00
2851;DHT22;1433;49.976;8.342;2024-01-10T01:36:52;-4.80;1.00
2851;DHT22;1433;49.976;8.342;2024-01-10T01:39:19;-4.80;1.00
2851;DHT22;1433;49.976;8.342;2024-01-10T01:41:45;-4.70;1.00
2851;DHT22;1433;49.976;8.342;2024-01-10T01:44:11;-4.70;1.00
2851;DHT22;1433;49.976;8.342;2024-01-10T01:46:37;-4.80;1.00
2851;DHT22;1433;49.976;8.342;2024-01-10T01:49:06;-4.90;1.00
2851;DHT22;1433;49.976;8.342;2024-01-10T01:51:34;-4.90;1.00
2851;DHT22;1433;49.976;8.342;2024-01-10T01:54:05;-5.00;1.00
2851;DHT22;1433;49.976;8.342;2024-01-10T01:56:31;-5.00;1.00
2851;DHT22;1433;49.976;8.342;2024-01-10T01:58:58;-5.00;1.00
2851;DHT22;1433;49.976;8.342;2024-01-10T02:01:24;-5.00;1.00
2851;DHT22;1433;49.976;8.342;2024-01-10T02:03:50;-5.00;1.00
2851;DHT22;1433;49.976;8.342;2024-01-10T02:06:16;-5.00;1.00
2851;DHT22;1433;49.976;8.342;2024-01-10T02:08:42;-5.00;1.00
2851;DHT22;1433;49.976;8.342;2024-01-10T02:11:09;-5.00;1.00
2851;DHT22;1433;49.976;8.342;2024-01-10T02:13:35;-5.00;1.00
2851;DHT22;1433;49.976;8.342;2024-01-10T02:16:03;-5.00;10.70
2851;DHT22;1433;49.976;8.342;2024-01-10T02:18:29;-5.00;15.70
2851;DHT22;1433;49.976;8.342;2024-01-10T02:20:56;-5.00;49.70
2851;DHT22;1433;49.976;8.342;2024-01-10T02:23:22;-5.00;43.90
2851;DHT22;1433;49.976;8.342;2024-01-10T02:25:48;-5.10;42.00
2851;DHT22;1433;49.976;8.342;2024-01-10T02:28:15;-5.10;91.80
2851;DHT22;1433;49.976;8.342;2024-01-10T02:30:41;-5.10;99.90
2851;DHT22;1433;49.976;8.342;2024-01-10T02:33:07;-5.10;93.00
2851;DHT22;1433;49.976;8.342;2024-01-10T02:35:33;-5.10;99.90
2851;DHT22;1433;49.976;8.342;2024-01-10T02:37:59;-5.10;91.30
2851;DHT22;1433;49.976;8.342;2024-01-10T02:40:26;-5.20;95.80
2851;DHT22;1433;49.976;8.342;2024-01-10T02:42:52;-5.20;99.90
2851;DHT22;1433;49.976;8.342;2024-01-10T02:45:18;-5.20;99.90
2851;DHT22;1433;49.976;8.342;2024-01-10T02:47:45;-5.20;99.90
2851;DHT22;1433;49.976;8.342;2024-01-10T02:50:11;-5.20;99.90
2851;DHT22;1433;49.976;8.342;2024-01-10T02:52:37;-5.30;99.90
2851;DHT22;1433;49.976;8.342;2024-01-10T02:55:04;-5.30;99.90
2851;DHT22;1433;49.976;8.342;2024-01-10T02:57:30;-5.30;99.90
2851;DHT22;1433;49.976;8.342;2024-01-10T02:59:56;-5.30;99.90
2851;DHT22;1433;49.976;8.342;2024-01-10T03:02:22;-5.30;99.90
2851;DHT22;1433;49.976;8.342;2024-01-10T03:04:50;-5.30;99.90
2851;DHT22;1433;49.976;8.342;2024-01-10T03:07:17;-5.30;99.90
2851;DHT22;1433;49.976;8.342;2024-01-10T03:09:43;-5.40;99.90
2851;DHT22;1433;49.976;8.342;2024-01-10T03:12:11;-5.30;99.90
2851;DHT22;1433;49.976;8.342;2024-01-10T03:14:37;-5.40;99.90
2851;DHT22;1433;49.976;8.342;2024-01-10T03:17:03;-5.40;99.90
2851;DHT22;1433;49.976;8.342;2024-01-10T03:19:30;-5.40;99.90
2851;DHT22;1433;49.976;8.342;2024-01-10T03:21:56;-5.40;99.90
2851;DHT22;1433;49.976;8.342;2024-01-10T03:24:22;-5.40;99.90
2851;DHT22;1433;49.976;8.342;2024-01-10T03:26:50;-5.40;99.90
2851;DHT22;1433;49.976;8.342;2024-01-10T03:29:16;-5.40;99.90
2851;DHT22;1433;49.976;8.342;2024-01-10T03:31:42;-5.40;99.90
2851;DHT22;1433;49.976;8.342;2024-01-10T03:34:09;-5.50;99.90
2851;DHT22;1433;49.976;8.342;2024-01-10T03:36:35;-5.50;99.90
2851;DHT22;1433;49.976;8.342;2024-01-10T03:39:01;-5.50;99.90
2851;DHT22;1433;49.976;8.342;2024-01-10T03:41:27;-5.50;99.90
2851;DHT22;1433;49.976;8.342;2024-01-10T03:43:54;-5.50;99.90
2851;DHT22;1433;49.976;8.342;2024-01-10T03:46:20;-5.40;1.00
2851;DHT22;1433;49.976;8.342;2024-01-10T03:48:46;-5.40;1.00
2851;DHT22;1433;49.976;8.342;2024-01-10T03:51:16;-5.40;99.90
2851;DHT22;1433;49.976;8.342;2024-01-10T03:53:43;-5.40;99.90
2851;DHT22;1433;49.976;8.342;2024-01-10T03:56:09;-5.40;99.90
2851;DHT22;1433;49.976;8.342;2024-01-10T03:58:36;-5.40;99.90
2851;DHT22;1433;49.976;8.342;2024-01-10T04:01:05;-5.30;1.00
2851;DHT22;1433;49.976;8.342;2024-01-10T04:03:33;-5.30;99.90
2851;DHT22;1433;49.976;8.342;2024-01-10T04:05:59;-5.30;99.90
2851;DHT22;1433;49.976;8.342;2024-01-10T04:08:25;-5.20;99.90
2851;DHT22;1433;49.976;8.342;2024-01-10T04:10:51;-5.20;99.90
2851;DHT22;1433;49.976;8.342;2024-01-10T04:13:17;-5.20;99.90
2851;DHT22;1433;49.976;8.342;2024-01-10T04:15:43;-5.20;99.90
2851;DHT22;1433;49.976;8.342;2024-01-10T04:18:09;-5.20;99.90
2851;DHT22;1433;49.976;8.342;2024-01-10T04:20:36;-5.20;99.90
2851;DHT22;1433;49.976;8.342;2024-01-10T04:23:02;-5.20;99.90
2851;DHT22;1433;49.976;8.342;2024-01-10T04:25:29;-5.20;99.90
2851;DHT22;1433;49.976;8.342;2024-01-10T04:27:55;-5.20;99.90
2851;DHT22;1433;49.976;8.342;2024-01-10T04:30:21;-5.20;99.90
2851;DHT22;1433;49.976;8.342;2024-01-10T04:32:48;-5.10;99.90
2851;DHT22;1433;49.976;8.342;2024-01-10T04:35:14;-5.10;99.90
2851;DHT22;1433;49.976;8.342;2024-01-10T04:37:40;-5.10;99.90
2851;DHT22;1433;49.976;8.342;2024-01-10T04:40:07;-5.10;99.90
2851;DHT22;1433;49.976;8.342;2024-01-10T04:42:33;-5.00;99.90
2851;DHT22;1433;49.976;8.342;2024-01-10T04:44:59;-5.00;99.90
2851;DHT22;1433;49.976;8.342;2024-01-10T04:47:25;-5.00;99.90
2851;DHT22;1433;49.976;8.342;2024-01-10T04:49:51;-5.00;99.90
2851;DHT22;1433;49.976;8.342;2024-01-10T04:52:18;-4.90;99.90
2851;DHT22;1433;49.976;8.342;2024-01-10T04:54:45;-4.90;99.90
2851;DHT22;1433;49.976;8.342;2024-01-10T04:57:11;-4.90;99.90
2851;DHT22;1433;49.976;8.342;2024-01-10T04:59:37;-4.90;99.90
2851;DHT22;1433;49.976;8.342;2024-01-10T05:02:03;-4.90;99.90
2851;DHT22;1433;49.976;8.342;2024-01-10T05:04:30;-4.90;99.90
2851;DHT22;1433;49.976;8.342;2024-01-10T05:06:56;-4.90;99.90
2851;DHT22;1433;49.976;8.342;2024-01-10T05:09:22;-4.90;99.90
2851;DHT22;1433;49.976;8.342;2024-01-10T05:11:48;-4.90;99.90
2851;DHT22;1433;49.976;8.342;2024-01-10T05:14:17;-5.00;99.90
2851;DHT22;1433;49.976;8.342;2024-01-10T05:16:45;-5.00;99.90
2851;DHT22;1433;49.976;8.342;2024-01-10T05:19:13;-5.00;99.90
2851;DHT22;1433;49.976;8.342;2024-01-10T05:21:40;-5.00;99.90
2851;DHT22;1433;49.976;8.342;2024-01-10T05:24:06;-5.00;99.90
2851;DHT22;1433;49.976;8.342;2024-01-10T05:26:32;-5.00;99.90
2851;DHT22;1433;49.976;8.342;2024-01-10T05:28:59;-5.00;99.90
2851;DHT22;1433;49.976;8.342;2024-01-10T05:31:25;-5.00;99.90
2851;DHT22;1433;49.976;8.342;2024-01-10T05:33:52;-4.90;99.90
2851;DHT22;1433;49.976;8.342;2024-01-10T05:36:23;-4.90;99.90
2851;DHT22;1433;49.976;8.342;2024-01-10T05:38:50;-4.90;99.90
2851;DHT22;1433;49.976;8.342;2024-01-10T05:41:16;-4.90;99.90
2851;DHT22;1433;49.976;8.342;2024-01-10T05:43:43;-4.90;99.90
2851;DHT22;1433;49.976;8.342;2024-01-10T05:46:09;-4.90;99.90
2851;DHT22;1433;49.976;8.342;2024-01-10T05:48:36;-4.90;99.90
2851;DHT22;1433;49.976;8.342;2024-01-10T05:51:03;-4.90;99.90
2851;DHT22;1433;49.976;8.342;2024-01-10T05:53:29;-4.90;99.90
2851;DHT22;1433;49.976;8.342;2024-01-10T05:55:55;-5.00;99.90
2851;DHT22;1433;49.976;8.342;2024-01-10T05:58:21;-5.00;99.90
2851;DHT22;1433;49.976;8.342;2024-01-10T06:00:48;-5.00;99.90
2851;DHT22;1433;49.976;8.342;2024-01-10T06:03:14;-5.00;99.90
2851;DHT22;1433;49.976;8.342;2024-01-10T06:05:40;-5.00;99.90
2851;DHT22;1433;49.976;8.342;2024-01-10T06:08:06;-5.00;99.90
2851;DHT22;1433;49.976;8.342;2024-01-10T06:10:32;-5.00;99.90
2851;DHT22;1433;49.976;8.342;2024-01-10T06:12:59;-5.00;99.90
2851;DHT22;1433;49.976;8.342;2024-01-10T06:15:25;-5.00;99.90
2851;DHT22;1433;49.976;8.342;2024-01-10T06:17:51;-5.00;99.90
2851;DHT22;1433;49.976;8.342;2024-01-10T06:20:18;-5.00;99.90
2851;DHT22;1433;49.976;8.342;2024-01-10T06:22:44;-5.00;99.90
2851;DHT22;1433;49.976;8.342;2024-01-10T06:25:12;-5.00;99.90
2851;DHT22;1433;49.976;8.342;2024-01-10T06:27:39;-5.10;99.90
2851;DHT22;1433;49.976;8.342;2024-01-10T06:30:06;-5.10;99.90
2851;DHT22;1433;49.976;8.342;2024-01-10T06:32:33;-5.10;99.90
2851;DHT22;1433;49.976;8.342;2024-01-10T06:35:00;-5.10;99.90
2851;DHT22;1433;49.976;8.342;2024-01-10T06:37:28;-5.10;99.90
2851;DHT22;1433;49.976;8.342;2024-01-10T06:39:54;-5.20;99.90
2851;DHT22;1433;49.976;8.342;2024-01-10T06:42:20;-5.20;99.90
2851;DHT22;1433;49.976;8.342;2024-01-10T06:44:46;-5.20;99.90
2851;DHT22;1433;49.976;8.342;2024-01-10T06:47:12;-5.20;99.90
2851;DHT22;1433;49.976;8.342;2024-01-10T06:49:40;-5.30;99.90
2851;DHT22;1433;49.976;8.342;2024-01-10T06:52:06;-5.30;99.90
2851;DHT22;1433;49.976;8.342;2024-01-10T06:54:33;-5.20;99.90
2851;DHT22;1433;49.976;8.342;2024-01-10T06:57:01;-5.40;99.90
2851;DHT22;1433;49.976;8.342;2024-01-10T06:59:27;-5.20;99.90
2851;DHT22;1433;49.976;8.342;2024-01-10T07:01:53;-5.20;99.90
2851;DHT22;1433;49.976;8.342;2024-01-10T07:04:22;-5.20;99.90
2851;DHT22;1433;49.976;8.342;2024-01-10T07:06:50;-5.20;99.90
2851;DHT22;1433;49.976;8.342;2024-01-10T07:09:16;-5.10;99.90
2851;DHT22;1433;49.976;8.342;2024-01-10T07:11:46;-5.10;99.90
2851;DHT22;1433;49.976;8.342;2024-01-10T07:14:14;-5.10;99.90
2851;DHT22;1433;49.976;8.342;2024-01-10T07:16:41;-5.10;99.90
2851;DHT22;1433;49.976;8.342;2024-01-10T07:19:09;-5.10;99.90
2851;DHT22;1433;49.976;8.342;2024-01-10T07:21:37;-5.00;99.90
2851;DHT22;1433;49.976;8.342;2024-01-10T07:24:04;-5.00;99.90
2851;DHT22;1433;49.976;8.342;2024-01-10T07:26:30;-4.90;99.90
2851;DHT22;1433;49.976;8.342;2024-01-10T07:28:56;-4.90;99.90
2851;DHT22;1433;49.976;8.342;2024-01-10T07:31:22;-4.90;99.90
2851;DHT22;1433;49.976;8.342;2024-01-10T07:33:49;-4.90;99.90
2851;DHT22;1433;49.976;8.342;2024-01-10T07:36:15;-4.80;99.90
2851;DHT22;1433;49.976;8.342;2024-01-10T07:38:42;-4.80;99.90
2851;DHT22;1433;49.976;8.342;2024-01-10T07:41:08;-4.70;99.90
2851;DHT22;1433;49.976;8.342;2024-01-10T07:43:34;-4.70;99.90
2851;DHT22;1433;49.976;8.342;2024-01-10T07:46:00;-4.60;99.90
2851;DHT22;1433;49.976;8.342;2024-01-10T07:48:27;-4.60;99.90
2851;DHT22;1433;49.976;8.342;2024-01-10T07:50:53;-4.50;99.90
2851;DHT22;1433;49.976;8.342;2024-01-10T07:53:19;-4.50;99.90
2851;DHT22;1433;49.976;8.342;2024-01-10T07:55:45;-4.40;99.90
2851;DHT22;1433;49.976;8.342;2024-01-10T07:58:12;-4.40;99.90
2851;DHT22;1433;49.976;8.342;2024-01-10T08:00:38;-4.30;99.90
2851;DHT22;1433;49.976;8.342;2024-01-10T08:03:04;-4.30;99.90
2851;DHT22;1433;49.976;8.342;2024-01-10T08:05:30;-4.20;86.40
2851;DHT22;1433;49.976;8.342;2024-01-10T08:07:57;-4.10;12.80
2851;DHT22;1433;49.976;8.342;2024-01-10T08:10:24;-4.10;97.10
2851;DHT22;1433;49.976;8.342;2024-01-10T08:12:50;-4.00;1.00
2851;DHT22;1433;49.976;8.342;2024-01-10T08:15:18;-4.00;16.70
2851;DHT22;1433;49.976;8.342;2024-01-10T08:17:54;-3.90;1.00
2851;DHT22;1433;49.976;8.342;2024-01-10T08:20:35;-3.90;1.00
2851;DHT22;1433;49.976;8.342;2024-01-10T08:23:01;-3.80;20.30
2851;DHT22;1433;49.976;8.342;2024-01-10T08:25:27;-3.80;1.00
2851;DHT22;1433;49.976;8.342;2024-01-10T08:27:54;-3.70;1.00
2851;DHT22;1433;49.976;8.342;2024-01-10T08:30:21;-3.70;1.00
2851;DHT22;1433;49.976;8.342;2024-01-10T08:32:47;-3.60;1.00
2851;DHT22;1433;49.976;8.342;2024-01-10T08:35:14;-3.60;1.00
2851;DHT22;1433;49.976;8.342;2024-01-10T08:37:41;-3.50;1.00
2851;DHT22;1433;49.976;8.342;2024-01-10T08:40:14;-3.40;1.00
2851;DHT22;1433;49.976;8.342;2024-01-10T08:42:40;-3.30;1.00
2851;DHT22;1433;49.976;8.342;2024-01-10T08:45:06;-3.30;1.00
2851;DHT22;1433;49.976;8.342;2024-01-10T08:47:35;-3.10;1.00
2851;DHT22;1433;49.976;8.342;2024-01-10T08:50:02;-3.10;1.00
2851;DHT22;1433;49.976;8.342;2024-01-10T08:52:31;-3.10;1.00
2851;DHT22;1433;49.976;8.342;2024-01-10T08:54:57;-3.00;1.00
2851;DHT22;1433;49.976;8.342;2024-01-10T08:57:24;-2.90;1.00
2851;DHT22;1433;49.976;8.342;2024-01-10T08:59:52;-2.90;1.00
2851;DHT22;1433;49.976;8.342;2024-01-10T09:02:18;-2.80;1.00
2851;DHT22;1433;49.976;8.342;2024-01-10T09:04:45;-2.90;1.00
2851;DHT22;1433;49.976;8.342;2024-01-10T09:07:11;-2.80;1.00
2851;DHT22;1433;49.976;8.342;2024-01-10T09:09:37;-2.60;1.00
2851;DHT22;1433;49.976;8.342;2024-01-10T09:12:04;-2.60;1.00
2851;DHT22;1433;49.976;8.342;2024-01-10T09:14:30;-2.60;1.00
2851;DHT22;1433;49.976;8.342;2024-01-10T09:16:57;-2.50;1.00
2851;DHT22;1433;49.976;8.342;2024-01-10T09:19:24;-2.50;1.00
2851;DHT22;1433;49.976;8.342;2024-01-10T09:21:50;-2.50;1.00
2851;DHT22;1433;49.976;8.342;2024-01-10T09:24:17;-2.50;1.00
2851;DHT22;1433;49.976;8.342;2024-01-10T09:26:44;-2.40;1.00
2851;DHT22;1433;49.976;8.342;2024-01-10T09:29:10;-2.50;1.00
2851;DHT22;1433;49.976;8.342;2024-01-10T09:31:36;-2.40;1.00
2851;DHT22;1433;49.976;8.342;2024-01-10T09:34:02;-2.30;1.00
2851;DHT22;1433;49.976;8.342;2024-01-10T09:36:29;-2.20;1.00
2851;DHT22;1433;49.976;8.342;2024-01-10T09:38:55;-2.10;1.00
2851;DHT22;1433;49.976;8.342;2024-01-10T09:41:21;-2.00;1.00
2851;DHT22;1433;49.976;8.342;2024-01-10T09:43:48;-1.80;1.00
2851;DHT22;1433;49.976;8.342;2024-01-10T09:46:16;-1.70;1.00
2851;DHT22;1433;49.976;8.342;2024-01-10T09:48:43;-1.60;1.00
2851;DHT22;1433;49.976;8.342;2024-01-10T09:51:12;-1.60;1.00
2851;DHT22;1433;49.976;8.342;2024-01-10T09:53:42;-1.60;1.00
2851;DHT22;1433;49.976;8.342;2024-01-10T09:56:08;-1.60;1.00
2851;DHT22;1433;49.976;8.342;2024-01-10T09:58:36;-1.50;1.00
2851;DHT22;1433;49.976;8.342;2024-01-10T10:01:04;-1.50;1.00
2851;DHT22;1433;49.976;8.342;2024-01-10T10:03:34;-1.60;1.00
2851;DHT22;1433;49.976;8.342;2024-01-10T10:06:01;-1.50;1.00
2851;DHT22;1433;49.976;8.342;2024-01-10T10:08:27;-1.50;1.00
2851;DHT22;1433;49.976;8.342;2024-01-10T10:10:53;-1.50;1.00
2851;DHT22;1433;49.976;8.342;2024-01-10T10:13:29;-1.50;1.00
2851;DHT22;1433;49.976;8.342;2024-01-10T10:16:03;-1.50;1.00
2851;DHT22;1433;49.976;8.342;2024-01-10T10:18:30;-1.40;1.00
2851;DHT22;1433;49.976;8.342;2024-01-10T10:21:09;-1.40;1.00
2851;DHT22;1433;49.976;8.342;2024-01-10T10:23:37;-1.50;1.00
2851;DHT22;1433;49.976;8.342;2024-01-10T10:26:14;-1.40;1.00
2851;DHT22;1433;49.976;8.342;2024-01-10T10:28:42;-1.40;1.00
2851;DHT22;1433;49.976;8.342;2024-01-10T10:31:09;-1.50;1.00
2851;DHT22;1433;49.976;8.342;2024-01-10T10:33:36;-1.30;1.00
2851;DHT22;1433;49.976;8.342;2024-01-10T10:36:03;-1.20;1.00
2851;DHT22;1433;49.976;8.342;2024-01-10T10:38:29;-1.20;1.00
2851;DHT22;1433;49.976;8.342;2024-01-10T10:40:58;-1.20;1.00
2851;DHT22;1433;49.976;8.342;2024-01-10T10:43:25;-1.10;1.00
2851;DHT22;1433;49.976;8.342;2024-01-10T10:45:52;-1.10;1.00
2851;DHT22;1433;49.976;8.342;2024-01-10T10:48:19;-0.90;1.00
2851;DHT22;1433;49.976;8.342;2024-01-10T10:50:59;-0.90;1.00
2851;DHT22;1433;49.976;8.342;2024-01-10T10:53:23;-0.80;1.00
2851;DHT22;1433;49.976;8.342;2024-01-10T10:55:51;-0.70;1.00
2851;DHT22;1433;49.976;8.342;2024-01-10T10:58:18;-0.60;1.00
2851;DHT22;1433;49.976;8.342;2024-01-10T11:00:47;-0.40;1.00
2851;DHT22;1433;49.976;8.342;2024-01-10T11:03:14;-0.30;26.00
2851;DHT22;1433;49.976;8.342;2024-01-10T11:05:43;-0.30;27.90
2851;DHT22;1433;49.976;8.342;2024-01-10T11:08:12;-0.30;15.90
2851;DHT22;1433;49.976;8.342;2024-01-10T11:10:40;-0.30;10.50
2851;DHT22;1433;49.976;8.342;2024-01-10T11:13:36;-0.10;45.00
2851;DHT22;1433;49.976;8.342;2024-01-10T11:24:37;0.50;46.70
2851;DHT22;1433;49.976;8.342;2024-01-10T11:27:14;0.70;44.80
2851;DHT22;1433;49.976;8.342;2024-01-10T11:29:45;0.70;61.90
2851;DHT22;1433;49.976;8.342;2024-01-10T11:32:19;0.90;90.10
2851;DHT22;1433;49.976;8.342;2024-01-10T11:34:57;1.20;99.90
2851;DHT22;1433;49.976;8.342;2024-01-10T11:37:44;1.60;99.90
2851;DHT22;1433;49.976;8.342;2024-01-10T11:40:12;1.90;77.20
2851;DHT22;1433;49.976;8.342;2024-01-10T11:42:42;2.10;94.40
2851;DHT22;1433;49.976;8.342;2024-01-10T11:47:49;2.30;99.90
2851;DHT22;1433;49.976;8.342;2024-01-10T11:50:18;2.10;99.90
2851;DHT22;1433;49.976;8.342;2024-01-10T11:52:44;1.80;86.40
2851;DHT22;1433;49.976;8.342;2024-01-10T11:55:35;1.50;33.40
2851;DHT22;1433;49.976;8.342;2024-01-10T11:57:42;1.10;1.00
2851;DHT22;1433;49.976;8.342;2024-01-10T12:00:08;1.00;1.00
2851;DHT22;1433;49.976;8.342;2024-01-10T12:02:37;0.90;6.10
2851;DHT22;1433;49.976;8.342;2024-01-10T12:05:04;0.90;3.60
2851;DHT22;1433;49.976;8.342;2024-01-10T12:07:32;1.10;50.80
2851;DHT22;1433;49.976;8.342;2024-01-10T12:09:59;1.40;72.70
2851;DHT22;1433;49.976;8.342;2024-01-10T12:12:25;1.40;99.90
2851;DHT22;1433;49.976;8.342;2024-01-10T12:14:51;1.60;42.70
2851;DHT22;1433;49.976;8.342;2024-01-10T12:17:17;1.50;99.90
2851;DHT22;1433;49.976;8.342;2024-01-10T12:19:45;1.70;95.80
2851;DHT22;1433;49.976;8.342;2024-01-10T12:22:11;2.00;99.90
2851;DHT22;1433;49.976;8.342;2024-01-10T12:24:44;1.90;99.90
2851;DHT22;1433;49.976;8.342;2024-01-10T12:27:16;2.30;99.90
2851;DHT22;1433;49.976;8.342;2024-01-10T12:29:49;2.60;99.90
2851;DHT22;1433;49.976;8.342;2024-01-10T12:32:20;2.90;99.90
2851;DHT22;1433;49.976;8.342;2024-01-10T12:34:48;3.00;99.90
2851;DHT22;1433;49.976;8.342;2024-01-10T12:37:15;2.70;99.90
2851;DHT22;1433;49.976;8.342;2024-01-10T12:39:41;2.80;99.90
2851;DHT22;1433;49.976;8.342;2024-01-10T12:42:07;3.20;99.90
2851;DHT22;1433;49.976;8.342;2024-01-10T12:44:35;3.40;99.90
2851;DHT22;1433;49.976;8.342;2024-01-10T12:47:01;3.60;99.90
2851;DHT22;1433;49.976;8.342;2024-01-10T12:49:28;3.70;99.90
2851;DHT22;1433;49.976;8.342;2024-01-10T12:51:54;3.80;99.90
2851;DHT22;1433;49.976;8.342;2024-01-10T12:54:20;3.60;99.90
2851;DHT22;1433;49.976;8.342;2024-01-10T12:56:47;3.40;99.90
2851;DHT22;1433;49.976;8.342;2024-01-10T12:59:13;3.80;99.90
2851;DHT22;1433;49.976;8.342;2024-01-10T13:01:39;3.70;99.90
2851;DHT22;1433;49.976;8.342;2024-01-10T13:04:06;4.20;99.90
2851;DHT22;1433;49.976;8.342;2024-01-10T13:06:32;4.30;99.90
2851;DHT22;1433;49.976;8.342;2024-01-10T13:08:58;4.30;99.90
2851;DHT22;1433;49.976;8.342;2024-01-10T13:11:24;4.10;99.90
2851;DHT22;1433;49.976;8.342;2024-01-10T13:13:50;4.20;99.90
2851;DHT22;1433;49.976;8.342;2024-01-10T13:16:17;4.20;99.90
2851;DHT22;1433;49.976;8.342;2024-01-10T13:18:43;4.20;99.90
2851;DHT22;1433;49.976;8.342;2024-01-10T13:21:10;4.30;99.90
2851;DHT22;1433;49.976;8.342;2024-01-10T13:23:36;4.10;99.90
2851;DHT22;1433;49.976;8.342;2024-01-10T13:26:03;4.00;99.90
2851;DHT22;1433;49.976;8.342;2024-01-10T13:28:29;4.30;99.90
2851;DHT22;1433;49.976;8.342;2024-01-10T13:30:56;4.40;99.90
2851;DHT22;1433;49.976;8.342;2024-01-10T13:33:22;4.20;99.90
2851;DHT22;1433;49.976;8.342;2024-01-10T13:35:48;3.90;99.90
2851;DHT22;1433;49.976;8.342;2024-01-10T13:38:15;3.80;99.90
2851;DHT22;1433;49.976;8.342;2024-01-10T13:40:43;3.40;99.90
2851;DHT22;1433;49.976;8.342;2024-01-10T13:43:09;3.00;99.90
2851;DHT22;1433;49.976;8.342;2024-01-10T13:45:35;2.50;99.90
2851;DHT22;1433;49.976;8.342;2024-01-10T13:48:02;2.20;99.90
2851;DHT22;1433;49.976;8.342;2024-01-10T13:50:28;1.90;99.90
2851;DHT22;1433;49.976;8.342;2024-01-10T13:52:56;1.70;60.50
2851;DHT22;1433;49.976;8.342;2024-01-10T13:55:22;1.70;90.00
2851;DHT22;1433;49.976;8.342;2024-01-10T13:57:50;1.70;21.10
2851;DHT22;1433;49.976;8.342;2024-01-10T14:00:21;1.50;21.00
2851;DHT22;1433;49.976;8.342;2024-01-10T14:02:48;1.50;34.40
2851;DHT22;1433;49.976;8.342;2024-01-10T14:05:14;1.30;1.00
2851;DHT22;1433;49.976;8.342;2024-01-10T14:07:41;1.30;12.70
2851;DHT22;1433;49.976;8.342;2024-01-10T14:10:10;1.10;1.00
2851;DHT22;1433;49.976;8.342;2024-01-10T14:12:38;1.10;24.10
2851;DHT22;1433;49.976;8.342;2024-01-10T14:15:05;1.10;1.00
2851;DHT22;1433;49.976;8.342;2024-01-10T14:17:31;1.00;90.30
2851;DHT22;1433;49.976;8.342;2024-01-10T14:19:57;1.00;1.00
2851;DHT22;1433;49.976;8.342;2024-01-10T14:22:23;0.90;1.00
2851;DHT22;1433;49.976;8.342;2024-01-10T14:24:51;0.80;1.00
2851;DHT22;1433;49.976;8.342;2024-01-10T14:27:18;0.80;1.00
2851;DHT22;1433;49.976;8.342;2024-01-10T14:29:44;0.80;1.00
2851;DHT22;1433;49.976;8.342;2024-01-10T14:32:10;0.80;1.00
2851;DHT22;1433;49.976;8.342;2024-01-10T14:34:39;0.90;1.00
2851;DHT22;1433;49.976;8.342;2024-01-10T14:37:06;0.80;1.00
2851;DHT22;1433;49.976;8.342;2024-01-10T14:39:34;0.70;1.00
2851;DHT22;1433;49.976;8.342;2024-01-10T14:42:03;0.50;1.00
2851;DHT22;1433;49.976;8.342;2024-01-10T14:44:29;0.40;1.00
2851;DHT22;1433;49.976;8.342;2024-01-10T14:46:56;0.40;1.00
2851;DHT22;1433;49.976;8.342;2024-01-10T14:49:22;0.30;1.00
2851;DHT22;1433;49.976;8.342;2024-01-10T14:51:49;0.30;1.00
2851;DHT22;1433;49.976;8.342;2024-01-10T14:54:15;0.20;1.00
2851;DHT22;1433;49.976;8.342;2024-01-10T14:56:41;0.20;1.00
2851;DHT22;1433;49.976;8.342;2024-01-10T14:59:10;0.10;1.00
2851;DHT22;1433;49.976;8.342;2024-01-10T15:01:37;0.00;1.00
2851;DHT22;1433;49.976;8.342;2024-01-10T15:04:03;-0.10;1.00
2851;DHT22;1433;49.976;8.342;2024-01-10T15:06:32;-0.10;1.00
2851;DHT22;1433;49.976;8.342;2024-01-10T15:09:00;-0.10;1.00
2851;DHT22;1433;49.976;8.342;2024-01-10T15:11:26;-0.10;1.00
2851;DHT22;1433;49.976;8.342;2024-01-10T15:13:52;-0.10;1.00
2851;DHT22;1433;49.976;8.342;2024-01-10T15:16:18;-0.20;1.00
2851;DHT22;1433;49.976;8.342;2024-01-10T15:18:46;-0.30;1.00
2851;DHT22;1433;49.976;8.342;2024-01-10T15:21:12;-0.30;1.00
2851;DHT22;1433;49.976;8.342;2024-01-10T15:23:38;-0.30;1.00
2851;DHT22;1433;49.976;8.342;2024-01-10T15:26:05;-0.40;1.00
2851;DHT22;1433;49.976;8.342;2024-01-10T15:28:31;-0.40;1.00
2851;DHT22;1433;49.976;8.342;2024-01-10T15:30:57;-0.40;1.00
2851;DHT22;1433;49.976;8.342;2024-01-10T15:33:23;-0.50;1.00
2851;DHT22;1433;49.976;8.342;2024-01-10T15:35:49;-0.50;1.00
2851;DHT22;1433;49.976;8.342;2024-01-10T15:38:16;-0.50;1.00
2851;DHT22;1433;49.976;8.342;2024-01-10T15:40:42;-0.60;1.00
2851;DHT22;1433;49.976;8.342;2024-01-10T15:43:08;-0.60;1.00
2851;DHT22;1433;49.976;8.342;2024-01-10T15:45:35;-0.70;1.00
2851;DHT22;1433;49.976;8.342;2024-01-10T15:48:01;-0.70;1.00
2851;DHT22;1433;49.976;8.342;2024-01-10T15:50:28;-0.80;1.00
2851;DHT22;1433;49.976;8.342;2024-01-10T15:52:54;-0.80;1.00
2851;DHT22;1433;49.976;8.342;2024-01-10T15:55:20;-0.90;1.00
2851;DHT22;1433;49.976;8.342;2024-01-10T15:57:48;-0.90;1.00
2851;DHT22;1433;49.976;8.342;2024-01-10T16:00:15;-1.00;1.00
2851;DHT22;1433;49.976;8.342;2024-01-10T16:02:41;-1.10;1.00
2851;DHT22;1433;49.976;8.342;2024-01-10T16:05:08;-1.10;1.00
2851;DHT22;1433;49.976;8.342;2024-01-10T16:07:35;-1.10;1.00
2851;DHT22;1433;49.976;8.342;2024-01-10T16:10:01;-1.10;1.00
2851;DHT22;1433;49.976;8.342;2024-01-10T16:12:29;-1.20;1.00
2851;DHT22;1433;49.976;8.342;2024-01-10T16:14:57;-1.20;1.00
2851;DHT22;1433;49.976;8.342;2024-01-10T16:17:23;-1.20;1.00
2851;DHT22;1433;49.976;8.342;2024-01-10T16:19:50;-1.30;1.00
2851;DHT22;1433;49.976;8.342;2024-01-10T16:22:17;-1.30;1.00